weather.gov     
National Weather Service

Terminal Aerodrome Forecast
NWS Homepage
This page is being discontinued on March 12, 2014.
The same data is available at this site. Please update your bookmarks.
Thank you, and we apologize for the inconvenience.
Please send an email to SR-SRH.Webmaster@noaa.gov with any concerns.


Current Version
Previous Version:    01  02  03  04  05  06  07  08  09  10  11  12  13  14  
[Printable]
569
FTUS41 KBOX 260537
TAFORH
TAF
KORH 260537Z 2606/2706 34006KT P6SM FEW150
     FM261100 02006KT P6SM BKN110
     FM261800 05007KT P6SM OVC015
     FM262200 05010KT 2SM -SN OVC015
     FM270000 04012KT 1/2SM SN BLSN OVC010=


569
FTUS41 KBOX 260537
TAFORH
TAF
KORH 260537Z 2606/2706 34006KT P6SM FEW150
     FM261100 02006KT P6SM BKN110
     FM261800 05007KT P6SM OVC015
     FM262200 05010KT 2SM -SN OVC015
     FM270000 04012KT 1/2SM SN BLSN OVC010=




U.S. Dept. of Commerce
NOAA National Weather Service
1325 East West Highway
Silver Spring, MD 20910
E-mail: w-nws.webmaster@noaa.gov
Page last modified: May 16, 2007
NATIONAL WEATHER SERVICE: for Safety, for Work, for Fun - FOR LIFE